sensor_id;sensor_type;location;lat;lon;timestamp;noise_LAeq;noise_LA_min;noise_LA_max;noise_LA01;noise_LA95
42701;Laerm;28316;49.504;8.526;2024-03-23T00:55:59;39.52;37.32;41.46;;
42701;Laerm;28316;49.504;8.526;2024-03-23T00:58:25;39.50;37.12;41.06;;
42701;Laerm;28316;49.504;8.526;2024-03-23T01:00:50;39.52;37.52;41.22;;
42701;Laerm;28316;49.504;8.526;2024-03-23T01:03:16;39.56;37.52;41.46;;
42701;Laerm;28316;49.504;8.526;2024-03-23T01:05:42;39.61;37.70;41.30;;
42701;Laerm;28316;49.504;8.526;2024-03-23T01:08:08;39.62;37.32;41.30;;
42701;Laerm;28316;49.504;8.526;2024-03-23T01:10:33;39.65;37.52;41.22;;
42701;Laerm;28316;49.504;8.526;2024-03-23T01:12:59;39.67;37.88;41.11;;
42701;Laerm;28316;49.504;8.526;2024-03-23T01:15:25;39.73;37.88;41.46;;
42701;Laerm;28316;49.504;8.526;2024-03-23T01:17:50;39.75;37.70;41.22;;
42701;Laerm;28316;49.504;8.526;2024-03-23T01:20:16;39.75;37.70;41.53;;
42701;Laerm;28316;49.504;8.526;2024-03-23T01:22:42;39.77;37.70;41.14;;
42701;Laerm;28316;49.504;8.526;2024-03-23T01:25:08;39.76;37.70;41.22;;
42701;Laerm;28316;49.504;8.526;2024-03-23T01:27:34;39.78;38.05;41.46;;
42701;Laerm;28316;49.504;8.526;2024-03-23T01:30:00;39.80;37.88;41.46;;
42701;Laerm;28316;49.504;8.526;2024-03-23T01:32:25;39.85;38.05;41.33;;
42701;Laerm;28316;49.504;8.526;2024-03-23T01:34:51;39.85;38.02;41.30;;
42701;Laerm;28316;49.504;8.526;2024-03-23T01:37:17;39.84;38.05;41.22;;
42701;Laerm;28316;49.504;8.526;2024-03-23T01:39:42;39.86;38.37;41.46;;
42701;Laerm;28316;49.504;8.526;2024-03-23T01:42:08;39.87;37.88;41.38;;
42701;Laerm;28316;49.504;8.526;2024-03-23T01:44:34;39.85;37.52;41.38;;
42701;Laerm;28316;49.504;8.526;2024-03-23T01:46:59;39.86;38.05;41.46;;
42701;Laerm;28316;49.504;8.526;2024-03-23T01:49:25;39.88;38.21;41.53;;
42701;Laerm;28316;49.504;8.526;2024-03-23T01:51:51;39.88;38.05;41.30;;
42701;Laerm;28316;49.504;8.526;2024-03-23T01:54:17;39.86;38.05;41.22;;
42701;Laerm;28316;49.504;8.526;2024-03-23T01:56:43;39.83;38.05;41.30;;
42701;Laerm;28316;49.504;8.526;2024-03-23T01:59:08;39.79;37.88;41.75;;
42701;Laerm;28316;49.504;8.526;2024-03-23T02:01:37;39.76;37.88;41.53;;
42701;Laerm;28316;49.504;8.526;2024-03-23T02:04:03;39.76;37.70;41.38;;
42701;Laerm;28316;49.504;8.526;2024-03-23T02:06:29;39.80;38.05;41.46;;
42701;Laerm;28316;49.504;8.526;2024-03-23T02:08:55;39.85;37.70;41.38;;
42701;Laerm;28316;49.504;8.526;2024-03-23T02:11:21;39.89;38.21;41.30;;
42701;Laerm;28316;49.504;8.526;2024-03-23T02:13:47;39.93;37.88;41.30;;
42701;Laerm;28316;49.504;8.526;2024-03-23T02:16:12;39.96;37.88;41.53;;
42701;Laerm;28316;49.504;8.526;2024-03-23T02:18:41;40.01;37.88;49.50;;
42701;Laerm;28316;49.504;8.526;2024-03-23T02:21:06;39.99;37.70;41.61;;
42701;Laerm;28316;49.504;8.526;2024-03-23T02:23:32;39.99;38.05;41.46;;
42701;Laerm;28316;49.504;8.526;2024-03-23T02:25:58;39.97;38.05;41.53;;
42701;Laerm;28316;49.504;8.526;2024-03-23T02:28:24;39.98;38.37;41.53;;
42701;Laerm;28316;49.504;8.526;2024-03-23T02:30:50;40.01;38.05;42.71;;
42701;Laerm;28316;49.504;8.526;2024-03-23T02:33:16;40.12;38.37;41.53;;
42701;Laerm;28316;49.504;8.526;2024-03-23T02:35:46;40.14;38.52;41.61;;
42701;Laerm;28316;49.504;8.526;2024-03-23T02:38:12;40.18;38.52;41.75;;
42701;Laerm;28316;49.504;8.526;2024-03-23T02:40:38;40.22;38.21;41.68;;
42701;Laerm;28316;49.504;8.526;2024-03-23T02:43:04;40.21;38.67;41.61;;
42701;Laerm;28316;49.504;8.526;2024-03-23T02:45:30;40.19;38.37;41.61;;
42701;Laerm;28316;49.504;8.526;2024-03-23T02:47:56;40.11;38.21;41.75;;
42701;Laerm;28316;49.504;8.526;2024-03-23T02:50:22;40.05;38.21;41.38;;
42701;Laerm;28316;49.504;8.526;2024-03-23T02:52:48;40.00;38.37;41.68;;
42701;Laerm;28316;49.504;8.526;2024-03-23T02:55:14;39.94;38.21;41.38;;
42701;Laerm;28316;49.504;8.526;2024-03-23T02:57:41;39.91;38.05;41.61;;
42701;Laerm;28316;49.504;8.526;2024-03-23T03:00:07;39.88;38.21;42.03;;
42701;Laerm;28316;49.504;8.526;2024-03-23T03:02:33;39.82;37.88;41.14;;
42701;Laerm;28316;49.504;8.526;2024-03-23T03:04:59;39.83;37.88;41.38;;
42701;Laerm;28316;49.504;8.526;2024-03-23T03:07:25;39.88;38.18;41.38;;
42701;Laerm;28316;49.504;8.526;2024-03-23T03:09:51;39.91;37.88;41.38;;
42701;Laerm;28316;49.504;8.526;2024-03-23T03:12:17;40.04;38.52;41.61;;
42701;Laerm;28316;49.504;8.526;2024-03-23T03:14:43;40.14;38.37;41.46;;
42701;Laerm;28316;49.504;8.526;2024-03-23T03:17:08;40.29;38.67;42.09;;
42701;Laerm;28316;49.504;8.526;2024-03-23T03:19:34;40.50;38.81;41.96;;
42701;Laerm;28316;49.504;8.526;2024-03-23T03:22:00;40.71;38.95;41.89;;
42701;Laerm;28316;49.504;8.526;2024-03-23T03:24:26;40.81;39.46;42.47;;
42701;Laerm;28316;49.504;8.526;2024-03-23T03:26:51;41.07;39.58;46.25;;
42701;Laerm;28316;49.504;8.526;2024-03-23T03:29:17;41.14;39.70;52.35;;
42701;Laerm;28316;49.504;8.526;2024-03-23T03:31:43;41.16;39.70;42.41;;
42701;Laerm;28316;49.504;8.526;2024-03-23T03:34:09;41.15;39.70;42.29;;
42701;Laerm;28316;49.504;8.526;2024-03-23T03:36:35;41.13;39.46;42.41;;
42701;Laerm;28316;49.504;8.526;2024-03-23T03:39:01;41.23;39.70;42.59;;
42701;Laerm;28316;49.504;8.526;2024-03-23T03:41:28;41.19;39.46;42.47;;
42701;Laerm;28316;49.504;8.526;2024-03-23T03:43:54;41.16;39.70;42.29;;
42701;Laerm;28316;49.504;8.526;2024-03-23T03:46:21;41.17;39.81;42.35;;
42701;Laerm;28316;49.504;8.526;2024-03-23T03:48:46;41.19;39.81;42.53;;
42701;Laerm;28316;49.504;8.526;2024-03-23T03:51:14;41.14;39.58;42.41;;
42701;Laerm;28316;49.504;8.526;2024-03-23T03:53:40;41.09;39.70;42.35;;
42701;Laerm;28316;49.504;8.526;2024-03-23T03:56:06;41.08;39.70;42.29;;
42701;Laerm;28316;49.504;8.526;2024-03-23T03:58:32;41.08;39.58;42.35;;
42701;Laerm;28316;49.504;8.526;2024-03-23T04:00:58;41.09;39.70;42.22;;
42701;Laerm;28316;49.504;8.526;2024-03-23T04:03:24;41.06;39.46;42.29;;
42701;Laerm;28316;49.504;8.526;2024-03-23T04:05:52;41.02;39.58;42.29;;
42701;Laerm;28316;49.504;8.526;2024-03-23T04:08:18;41.06;39.46;42.98;;
42701;Laerm;28316;49.504;8.526;2024-03-23T04:10:44;41.05;39.70;42.22;;
42701;Laerm;28316;49.504;8.526;2024-03-23T04:13:14;41.07;39.58;42.22;;
42701;Laerm;28316;49.504;8.526;2024-03-23T04:15:40;41.08;39.58;42.59;;
42701;Laerm;28316;49.504;8.526;2024-03-23T04:18:07;41.06;39.58;42.29;;
42701;Laerm;28316;49.504;8.526;2024-03-23T04:20:32;41.03;39.70;42.35;;
42701;Laerm;28316;49.504;8.526;2024-03-23T04:22:59;41.07;39.34;43.24;;
42701;Laerm;28316;49.504;8.526;2024-03-23T04:25:25;41.03;39.70;43.04;;
42701;Laerm;28316;49.504;8.526;2024-03-23T04:27:51;41.03;39.58;42.53;;
42701;Laerm;28316;49.504;8.526;2024-03-23T04:30:17;41.05;39.46;43.72;;
42701;Laerm;28316;49.504;8.526;2024-03-23T04:32:43;41.05;39.58;42.71;;
42701;Laerm;28316;49.504;8.526;2024-03-23T04:35:09;41.08;39.68;43.49;;
42701;Laerm;28316;49.504;8.526;2024-03-23T04:37:38;41.04;38.95;42.22;;
42701;Laerm;28316;49.504;8.526;2024-03-23T04:40:07;41.19;39.58;44.73;;
42701;Laerm;28316;49.504;8.526;2024-03-23T04:42:33;41.04;39.46;44.07;;
42701;Laerm;28316;49.504;8.526;2024-03-23T04:45:00;40.99;39.58;42.47;;
42701;Laerm;28316;49.504;8.526;2024-03-23T04:47:26;41.05;39.21;42.35;;
42701;Laerm;28316;49.504;8.526;2024-03-23T04:49:52;41.05;39.11;42.29;;
42701;Laerm;28316;49.504;8.526;2024-03-23T04:52:18;41.05;39.46;42.35;;
42701;Laerm;28316;49.504;8.526;2024-03-23T04:54:44;41.00;39.58;42.35;;
42701;Laerm;28316;49.504;8.526;2024-03-23T04:57:11;41.19;39.34;50.93;;
42701;Laerm;28316;49.504;8.526;2024-03-23T04:59:36;41.09;39.70;44.69;;
42701;Laerm;28316;49.504;8.526;2024-03-23T05:02:02;41.15;39.58;43.58;;
42701;Laerm;28316;49.504;8.526;2024-03-23T05:04:28;41.19;39.46;44.73;;
42701;Laerm;28316;49.504;8.526;2024-03-23T05:06:54;41.23;39.46;44.43;;
42701;Laerm;28316;49.504;8.526;2024-03-23T05:09:20;41.24;39.58;53.28;;
42701;Laerm;28316;49.504;8.526;2024-03-23T05:11:46;41.09;39.58;43.34;;
42701;Laerm;28316;49.504;8.526;2024-03-23T05:14:14;41.43;39.70;53.80;;
42701;Laerm;28316;49.504;8.526;2024-03-23T05:16:41;41.42;39.70;49.96;;
42701;Laerm;28316;49.504;8.526;2024-03-23T05:19:06;41.35;39.81;49.19;;
42701;Laerm;28316;49.504;8.526;2024-03-23T05:21:32;41.16;39.46;49.07;;
42701;Laerm;28316;49.504;8.526;2024-03-23T05:23:58;41.09;39.08;49.87;;
42701;Laerm;28316;49.504;8.526;2024-03-23T05:26:24;40.84;38.67;52.76;;
42701;Laerm;28316;49.504;8.526;2024-03-23T05:28:49;40.75;38.37;49.38;;
42701;Laerm;28316;49.504;8.526;2024-03-23T05:31:31;40.45;38.67;55.68;;
42701;Laerm;28316;49.504;8.526;2024-03-23T05:33:57;40.17;38.52;57.59;;
42701;Laerm;28316;49.504;8.526;2024-03-23T05:36:23;39.97;38.05;45.51;;
42701;Laerm;28316;49.504;8.526;2024-03-23T05:38:52;39.56;37.70;42.03;;
42701;Laerm;28316;49.504;8.526;2024-03-23T05:41:17;39.41;37.32;40.98;;
42701;Laerm;28316;49.504;8.526;2024-03-23T05:43:43;39.33;37.32;40.98;;
42701;Laerm;28316;49.504;8.526;2024-03-23T05:46:09;39.38;36.98;41.22;;
42701;Laerm;28316;49.504;8.526;2024-03-23T05:48:35;39.41;37.32;41.53;;
42701;Laerm;28316;49.504;8.526;2024-03-23T05:51:01;39.52;37.52;41.14;;
42701;Laerm;28316;49.504;8.526;2024-03-23T05:53:27;39.83;37.52;41.68;;
42701;Laerm;28316;49.504;8.526;2024-03-23T05:56:03;40.07;38.05;41.61;;
42701;Laerm;28316;49.504;8.526;2024-03-23T05:58:29;40.16;38.37;41.53;;
42701;Laerm;28316;49.504;8.526;2024-03-23T06:01:02;40.23;38.60;41.75;;
42701;Laerm;28316;49.504;8.526;2024-03-23T06:03:29;40.26;38.21;41.68;;
42701;Laerm;28316;49.504;8.526;2024-03-23T06:05:55;40.27;38.21;41.82;;
42701;Laerm;28316;49.504;8.526;2024-03-23T06:08:22;40.26;38.52;41.82;;
42701;Laerm;28316;49.504;8.526;2024-03-23T06:10:48;40.24;38.47;41.82;;
42701;Laerm;28316;49.504;8.526;2024-03-23T06:13:15;40.25;38.52;41.75;;
42701;Laerm;28316;49.504;8.526;2024-03-23T06:15:42;40.22;38.52;41.96;;
42701;Laerm;28316;49.504;8.526;2024-03-23T06:18:08;40.22;38.21;41.68;;
42701;Laerm;28316;49.504;8.526;2024-03-23T06:20:34;40.21;38.32;41.82;;
42701;Laerm;28316;49.504;8.526;2024-03-23T06:23:03;40.25;38.21;41.75;;
42701;Laerm;28316;49.504;8.526;2024-03-23T06:25:29;40.37;38.21;43.81;;
42701;Laerm;28316;49.504;8.526;2024-03-23T06:27:55;40.52;38.37;41.96;;
42701;Laerm;28316;49.504;8.526;2024-03-23T06:30:21;40.62;38.95;42.69;;
42701;Laerm;28316;49.504;8.526;2024-03-23T06:32:47;40.68;39.21;42.93;;
42701;Laerm;28316;49.504;8.526;2024-03-23T06:35:13;40.73;39.21;43.14;;
42701;Laerm;28316;49.504;8.526;2024-03-23T06:37:39;40.78;39.08;42.16;;
42701;Laerm;28316;49.504;8.526;2024-03-23T06:40:08;40.82;39.34;43.09;;
42701;Laerm;28316;49.504;8.526;2024-03-23T06:42:38;40.88;39.46;44.03;;
42701;Laerm;28316;49.504;8.526;2024-03-23T06:45:05;40.87;39.57;42.88;;
42701;Laerm;28316;49.504;8.526;2024-03-23T06:47:31;40.89;39.21;44.07;;
42701;Laerm;28316;49.504;8.526;2024-03-23T06:50:02;40.86;39.34;44.03;;
42701;Laerm;28316;49.504;8.526;2024-03-23T06:52:29;40.82;39.21;42.03;;
42701;Laerm;28316;49.504;8.526;2024-03-23T06:54:55;40.85;39.34;42.29;;
42701;Laerm;28316;49.504;8.526;2024-03-23T06:57:21;40.89;39.34;43.94;;
42701;Laerm;28316;49.504;8.526;2024-03-23T06:59:47;40.91;39.21;42.88;;
42701;Laerm;28316;49.504;8.526;2024-03-23T07:02:13;40.98;39.58;46.76;;
42701;Laerm;28316;49.504;8.526;2024-03-23T07:04:38;40.93;39.46;42.16;;
42701;Laerm;28316;49.504;8.526;2024-03-23T07:07:07;41.03;39.34;47.86;;
42701;Laerm;28316;49.504;8.526;2024-03-23T07:09:33;41.14;39.46;46.52;;
42701;Laerm;28316;49.504;8.526;2024-03-23T07:11:59;41.56;39.58;54.48;;
42701;Laerm;28316;49.504;8.526;2024-03-23T07:14:25;41.30;39.68;50.58;;
42701;Laerm;28316;49.504;8.526;2024-03-23T07:16:51;41.04;39.21;44.47;;
42701;Laerm;28316;49.504;8.526;2024-03-23T07:19:17;41.18;39.11;48.42;;
42701;Laerm;28316;49.504;8.526;2024-03-23T07:21:44;41.13;39.70;43.49;;
42701;Laerm;28316;49.504;8.526;2024-03-23T07:24:10;41.21;39.81;43.90;;
42701;Laerm;28316;49.504;8.526;2024-03-23T07:26:36;41.25;39.58;48.63;;
42701;Laerm;28316;49.504;8.526;2024-03-23T07:29:05;41.29;39.92;42.53;;
42701;Laerm;28316;49.504;8.526;2024-03-23T07:31:30;41.34;40.03;42.59;;
42701;Laerm;28316;49.504;8.526;2024-03-23T07:33:56;41.35;40.03;42.65;;
42701;Laerm;28316;49.504;8.526;2024-03-23T07:36:22;41.30;39.70;42.65;;
42701;Laerm;28316;49.504;8.526;2024-03-23T07:38:48;41.27;39.70;42.47;;
42701;Laerm;28316;49.504;8.526;2024-03-23T07:41:18;41.27;39.81;43.94;;
42701;Laerm;28316;49.504;8.526;2024-03-23T07:43:45;41.27;39.81;42.71;;
42701;Laerm;28316;49.504;8.526;2024-03-23T07:46:12;41.25;39.68;42.93;;
42701;Laerm;28316;49.504;8.526;2024-03-23T07:48:38;41.25;39.58;42.53;;
42701;Laerm;28316;49.504;8.526;2024-03-23T07:51:10;41.23;39.58;42.59;;
42701;Laerm;28316;49.504;8.526;2024-03-23T07:53:37;41.26;39.81;42.29;;
42701;Laerm;28316;49.504;8.526;2024-03-23T07:56:09;41.30;39.81;44.23;;
42701;Laerm;28316;49.504;8.526;2024-03-23T07:58:38;41.47;39.92;48.39;;
42701;Laerm;28316;49.504;8.526;2024-03-23T08:01:09;41.50;40.33;42.71;;
42701;Laerm;28316;49.504;8.526;2024-03-23T08:03:39;41.55;40.03;43.99;;
42701;Laerm;28316;49.504;8.526;2024-03-23T08:06:19;41.60;40.23;45.31;;
42701;Laerm;28316;49.504;8.526;2024-03-23T08:08:48;41.61;40.03;44.90;;
42701;Laerm;28316;49.504;8.526;2024-03-23T08:11:30;41.56;40.23;43.39;;
42701;Laerm;28316;49.504;8.526;2024-03-23T08:13:57;41.72;39.92;48.46;;
42701;Laerm;28316;49.504;8.526;2024-03-23T08:16:23;41.58;40.03;45.39;;
42701;Laerm;28316;49.504;8.526;2024-03-23T08:18:51;41.62;40.13;43.99;;
42701;Laerm;28316;49.504;8.526;2024-03-23T08:21:17;41.66;40.03;43.99;;
42701;Laerm;28316;49.504;8.526;2024-03-23T08:23:44;41.72;40.33;43.94;;
42701;Laerm;28316;49.504;8.526;2024-03-23T08:26:15;42.03;40.03;53.51;;
42701;Laerm;28316;49.504;8.526;2024-03-23T08:28:41;41.77;40.53;43.09;;
42701;Laerm;28316;49.504;8.526;2024-03-23T08:31:09;41.85;40.62;43.44;;
42701;Laerm;28316;49.504;8.526;2024-03-23T08:33:35;41.87;40.43;43.34;;
42701;Laerm;28316;49.504;8.526;2024-03-23T08:36:06;41.92;40.80;43.09;;
42701;Laerm;28316;49.504;8.526;2024-03-23T08:38:33;41.98;40.43;43.14;;
42701;Laerm;28316;49.504;8.526;2024-03-23T08:41:01;41.98;40.80;44.47;;
42701;Laerm;28316;49.504;8.526;2024-03-23T08:43:28;41.93;40.80;42.93;;
42701;Laerm;28316;49.504;8.526;2024-03-23T08:46:11;41.98;40.71;43.58;;
42701;Laerm;28316;49.504;8.526;2024-03-23T08:48:42;42.03;40.36;43.58;;
42701;Laerm;28316;49.504;8.526;2024-03-23T08:51:13;42.07;40.62;45.33;;
42701;Laerm;28316;49.504;8.526;2024-03-23T08:53:40;42.08;40.98;43.19;;
42701;Laerm;28316;49.504;8.526;2024-03-23T08:56:07;42.11;40.89;44.87;;
42701;Laerm;28316;49.504;8.526;2024-03-23T08:58:34;42.12;40.71;47.08;;
42701;Laerm;28316;49.504;8.526;2024-03-23T09:01:07;42.10;40.80;43.24;;
42701;Laerm;28316;49.504;8.526;2024-03-23T09:03:33;42.11;40.98;43.99;;
42701;Laerm;28316;49.504;8.526;2024-03-23T09:05:59;42.10;40.80;44.90;;
42701;Laerm;28316;49.504;8.526;2024-03-23T09:08:25;42.11;40.80;43.63;;
42701;Laerm;28316;49.504;8.526;2024-03-23T09:10:52;42.10;40.80;43.49;;
42701;Laerm;28316;49.504;8.526;2024-03-23T09:13:18;42.10;40.43;43.29;;
42701;Laerm;28316;49.504;8.526;2024-03-23T09:15:52;42.08;40.71;43.44;;
42701;Laerm;28316;49.504;8.526;2024-03-23T09:18:22;42.04;40.80;43.34;;
42701;Laerm;28316;49.504;8.526;2024-03-23T09:20:48;42.01;40.43;43.14;;
42701;Laerm;28316;49.504;8.526;2024-03-23T09:23:13;41.99;40.79;43.14;;
42701;Laerm;28316;49.504;8.526;2024-03-23T09:25:40;41.96;40.71;43.04;;
42701;Laerm;28316;49.504;8.526;2024-03-23T09:28:07;41.99;40.62;42.98;;
42701;Laerm;28316;49.504;8.526;2024-03-23T09:30:36;42.06;40.80;43.09;;
42701;Laerm;28316;49.504;8.526;2024-03-23T09:33:11;42.09;40.71;43.14;;
42701;Laerm;28316;49.504;8.526;2024-03-23T09:35:38;42.08;40.80;43.24;;
42701;Laerm;28316;49.504;8.526;2024-03-23T09:38:04;42.09;40.53;44.35;;
42701;Laerm;28316;49.504;8.526;2024-03-23T09:40:31;42.08;40.80;43.09;;
42701;Laerm;28316;49.504;8.526;2024-03-23T09:42:57;42.08;40.62;43.68;;
42701;Laerm;28316;49.504;8.526;2024-03-23T09:45:28;42.08;40.33;44.08;;
42701;Laerm;28316;49.504;8.526;2024-03-23T09:47:55;42.08;40.71;45.17;;
42701;Laerm;28316;49.504;8.526;2024-03-23T09:50:22;42.09;40.71;43.49;;
42701;Laerm;28316;49.504;8.526;2024-03-23T09:52:48;42.09;40.23;45.77;;
42701;Laerm;28316;49.504;8.526;2024-03-23T09:55:14;42.07;40.80;43.24;;
42701;Laerm;28316;49.504;8.526;2024-03-23T09:57:41;42.06;40.80;43.49;;
42701;Laerm;28316;49.504;8.526;2024-03-23T10:00:08;42.06;40.62;45.33;;
42701;Laerm;28316;49.504;8.526;2024-03-23T10:02:35;42.04;40.53;43.19;;
42701;Laerm;28316;49.504;8.526;2024-03-23T10:05:01;42.03;40.53;43.29;;
42701;Laerm;28316;49.504;8.526;2024-03-23T10:07:27;42.04;40.53;44.23;;
42701;Laerm;28316;49.504;8.526;2024-03-23T10:09:54;42.03;40.62;43.58;;
42701;Laerm;28316;49.504;8.526;2024-03-23T10:12:21;42.03;40.71;43.34;;
42701;Laerm;28316;49.504;8.526;2024-03-23T10:14:47;42.05;40.33;46.18;;
42701;Laerm;28316;49.504;8.526;2024-03-23T10:17:21;42.04;40.62;44.23;;
42701;Laerm;28316;49.504;8.526;2024-03-23T10:19:52;42.06;40.53;44.90;;
42701;Laerm;28316;49.504;8.526;2024-03-23T10:22:22;41.97;40.62;43.29;;
42701;Laerm;28316;49.504;8.526;2024-03-23T10:24:49;41.96;40.33;43.14;;
42701;Laerm;28316;49.504;8.526;2024-03-23T10:27:17;41.95;40.53;46.02;;
42701;Laerm;28316;49.504;8.526;2024-03-23T10:29:49;41.92;40.43;43.24;;
42701;Laerm;28316;49.504;8.526;2024-03-23T10:32:17;41.91;40.23;43.34;;
42701;Laerm;28316;49.504;8.526;2024-03-23T10:34:43;41.92;40.53;43.24;;
42701;Laerm;28316;49.504;8.526;2024-03-23T10:37:09;41.91;40.33;43.14;;
42701;Laerm;28316;49.504;8.526;2024-03-23T10:39:38;41.90;40.23;44.23;;
42701;Laerm;28316;49.504;8.526;2024-03-23T10:42:09;41.96;40.53;50.96;;
42701;Laerm;28316;49.504;8.526;2024-03-23T10:44:38;41.90;40.33;43.09;;
42701;Laerm;28316;49.504;8.526;2024-03-23T10:47:05;41.92;40.43;43.09;;
42701;Laerm;28316;49.504;8.526;2024-03-23T10:49:35;41.92;40.23;43.09;;
42701;Laerm;28316;49.504;8.526;2024-03-23T10:52:03;41.95;40.43;43.44;;
42701;Laerm;28316;49.504;8.526;2024-03-23T10:54:30;41.91;40.33;45.01;;
42701;Laerm;28316;49.504;8.526;2024-03-23T10:59:29;41.93;40.33;51.00;;
42701;Laerm;28316;49.504;8.526;2024-03-23T11:02:00;41.83;40.23;52.14;;
42701;Laerm;28316;49.504;8.526;2024-03-23T11:04:36;41.71;40.23;45.89;;
42701;Laerm;28316;49.504;8.526;2024-03-23T11:09:56;41.60;39.58;44.69;;
42701;Laerm;28316;49.504;8.526;2024-03-23T11:15:04;41.57;39.70;45.66;;
42701;Laerm;28316;49.504;8.526;2024-03-23T11:17:31;41.70;39.81;50.56;;
42701;Laerm;28316;49.504;8.526;2024-03-23T11:20:04;41.57;39.92;43.09;;
42701;Laerm;28316;49.504;8.526;2024-03-23T11:22:47;41.59;39.58;48.21;;
42701;Laerm;28316;49.504;8.526;2024-03-23T11:25:26;41.65;39.58;53.12;;
42701;Laerm;28316;49.504;8.526;2024-03-23T11:27:56;41.60;39.46;46.69;;
42701;Laerm;28316;49.504;8.526;2024-03-23T11:30:27;41.50;39.70;46.13;;
42701;Laerm;28316;49.504;8.526;2024-03-23T11:32:57;41.48;39.81;43.68;;
42701;Laerm;28316;49.504;8.526;2024-03-23T11:35:33;41.75;39.70;48.48;;
42701;Laerm;28316;49.504;8.526;2024-03-23T11:38:09;41.65;40.03;43.29;;
42701;Laerm;28316;49.504;8.526;2024-03-23T11:40:43;41.80;40.03;49.58;;
42701;Laerm;28316;49.504;8.526;2024-03-23T11:43:13;41.83;40.13;46.30;;
42701;Laerm;28316;49.504;8.526;2024-03-23T11:45:47;41.86;40.43;44.90;;
42701;Laerm;28316;49.504;8.526;2024-03-23T11:48:18;41.70;39.08;45.27;;
42701;Laerm;28316;49.504;8.526;2024-03-23T11:50:47;39.69;36.91;43.90;;
42701;Laerm;28316;49.504;8.526;2024-03-23T11:53:21;38.59;35.04;42.22;;
42701;Laerm;28316;49.504;8.526;2024-03-23T11:55:58;38.13;34.69;41.53;;
42701;Laerm;28316;49.504;8.526;2024-03-23T11:58:27;37.60;33.90;40.62;;
42701;Laerm;28316;49.504;8.526;2024-03-23T12:01:03;37.31;32.93;39.58;;
42701;Laerm;28316;49.504;8.526;2024-03-23T12:03:31;37.06;32.35;39.34;;
42701;Laerm;28316;49.504;8.526;2024-03-23T12:06:00;36.85;32.93;39.92;;
42701;Laerm;28316;49.504;8.526;2024-03-23T12:08:32;36.71;31.68;39.46;;
42701;Laerm;28316;49.504;8.526;2024-03-23T12:13:37;36.87;30.89;39.58;;
42701;Laerm;28316;49.504;8.526;2024-03-23T12:16:14;38.54;35.31;40.80;;
42701;Laerm;28316;49.504;8.526;2024-03-23T12:18:41;39.96;37.52;41.75;;
42701;Laerm;28316;49.504;8.526;2024-03-23T12:21:08;40.69;39.08;42.03;;
42701;Laerm;28316;49.504;8.526;2024-03-23T12:23:35;40.72;39.08;42.03;;
42701;Laerm;28316;49.504;8.526;2024-03-23T12:26:01;40.72;38.95;42.22;;
42701;Laerm;28316;49.504;8.526;2024-03-23T12:28:28;40.74;38.95;42.16;;
42701;Laerm;28316;49.504;8.526;2024-03-23T12:30:54;40.59;39.08;42.09;;
42701;Laerm;28316;49.504;8.526;2024-03-23T12:33:23;40.69;38.32;42.03;;
42701;Laerm;28316;49.504;8.526;2024-03-23T12:35:52;40.68;38.95;42.16;;
42701;Laerm;28316;49.504;8.526;2024-03-23T12:38:19;40.25;36.91;41.96;;
42701;Laerm;28316;49.504;8.526;2024-03-23T12:40:49;38.43;34.69;40.98;;
42701;Laerm;28316;49.504;8.526;2024-03-23T12:43:15;37.61;34.31;40.03;;
42701;Laerm;28316;49.504;8.526;2024-03-23T12:45:41;37.99;34.31;40.71;;
42701;Laerm;28316;49.504;8.526;2024-03-23T12:48:07;39.87;36.69;41.53;;
42701;Laerm;28316;49.504;8.526;2024-03-23T12:50:33;40.49;38.67;42.22;;
42701;Laerm;28316;49.504;8.526;2024-03-23T12:52:59;40.76;38.95;42.09;;
42701;Laerm;28316;49.504;8.526;2024-03-23T12:55:24;40.91;39.34;45.51;;
42701;Laerm;28316;49.504;8.526;2024-03-23T12:57:50;41.23;39.70;43.39;;
42701;Laerm;28316;49.504;8.526;2024-03-23T13:00:16;42.31;39.81;58.16;;
42701;Laerm;28316;49.504;8.526;2024-03-23T13:02:42;42.76;40.03;58.63;;
42701;Laerm;28316;49.504;8.526;2024-03-23T13:05:09;41.82;38.95;53.14;;
42701;Laerm;28316;49.504;8.526;2024-03-23T13:07:35;40.76;38.37;50.34;;
42701;Laerm;28316;49.504;8.526;2024-03-23T13:10:01;40.87;38.87;50.13;;
42701;Laerm;28316;49.504;8.526;2024-03-23T13:12:27;40.27;38.37;44.07;;
42701;Laerm;28316;49.504;8.526;2024-03-23T13:14:53;39.90;37.88;42.22;;
42701;Laerm;28316;49.504;8.526;2024-03-23T13:17:19;39.85;37.70;41.89;;
42701;Laerm;28316;49.504;8.526;2024-03-23T13:19:44;40.01;38.37;42.22;;
42701;Laerm;28316;49.504;8.526;2024-03-23T13:22:10;40.40;38.67;41.89;;
42701;Laerm;28316;49.504;8.526;2024-03-23T13:24:37;40.71;39.08;42.03;;
42701;Laerm;28316;49.504;8.526;2024-03-23T13:27:03;40.79;39.21;42.03;;
42701;Laerm;28316;49.504;8.526;2024-03-23T13:29:31;40.98;39.21;42.35;;
42701;Laerm;28316;49.504;8.526;2024-03-23T13:31:56;41.16;39.70;45.72;;
42701;Laerm;28316;49.504;8.526;2024-03-23T13:34:22;41.04;39.46;42.35;;
42701;Laerm;28316;49.504;8.526;2024-03-23T13:36:48;41.13;39.46;45.07;;
42701;Laerm;28316;49.504;8.526;2024-03-23T13:39:14;41.12;39.58;42.35;;
42701;Laerm;28316;49.504;8.526;2024-03-23T13:41:43;41.23;39.70;42.53;;
42701;Laerm;28316;49.504;8.526;2024-03-23T13:44:13;41.40;39.70;42.82;;
42701;Laerm;28316;49.504;8.526;2024-03-23T13:46:41;41.48;40.03;42.76;;
42701;Laerm;28316;49.504;8.526;2024-03-23T13:51:53;41.44;39.92;43.09;;
42701;Laerm;28316;49.504;8.526;2024-03-23T13:54:20;41.35;39.81;42.47;;
42701;Laerm;28316;49.504;8.526;2024-03-23T13:56:49;41.30;39.81;42.53;;
42701;Laerm;28316;49.504;8.526;2024-03-23T13:59:14;41.96;40.36;43.09;;
42701;Laerm;28316;49.504;8.526;2024-03-23T14:01:40;42.13;40.89;43.04;;
42701;Laerm;28316;49.504;8.526;2024-03-23T14:04:06;42.06;40.62;43.49;;
42701;Laerm;28316;49.504;8.526;2024-03-23T14:06:32;42.10;40.71;48.51;;
42701;Laerm;28316;49.504;8.526;2024-03-23T14:08:57;41.91;40.54;46.25;;
42701;Laerm;28316;49.504;8.526;2024-03-23T14:11:23;41.81;40.43;43.72;;
42701;Laerm;28316;49.504;8.526;2024-03-23T14:13:51;41.87;40.43;49.67;;
42701;Laerm;28316;49.504;8.526;2024-03-23T14:16:17;41.77;40.43;43.63;;
42701;Laerm;28316;49.504;8.526;2024-03-23T14:18:43;41.66;40.23;44.03;;
42701;Laerm;28316;49.504;8.526;2024-03-23T14:21:08;41.86;40.53;47.55;;
42701;Laerm;28316;49.504;8.526;2024-03-23T14:23:36;41.80;40.23;50.38;;
42701;Laerm;28316;49.504;8.526;2024-03-23T14:26:01;41.75;40.43;42.93;;
42701;Laerm;28316;49.504;8.526;2024-03-23T14:28:27;41.71;40.33;44.07;;
42701;Laerm;28316;49.504;8.526;2024-03-23T14:30:56;41.55;40.13;42.76;;
42701;Laerm;28316;49.504;8.526;2024-03-23T14:33:22;41.40;39.92;42.65;;
42701;Laerm;28316;49.504;8.526;2024-03-23T14:35:55;41.48;40.13;43.54;;
42701;Laerm;28316;49.504;8.526;2024-03-23T14:38:23;39.97;35.36;48.16;;
42701;Laerm;28316;49.504;8.526;2024-03-23T14:40:50;37.84;33.44;51.81;;
42701;Laerm;28316;49.504;8.526;2024-03-23T14:43:16;37.34;31.68;50.10;;
42701;Laerm;28316;49.504;8.526;2024-03-23T14:46:12;36.98;31.68;51.24;;
42701;Laerm;28316;49.504;8.526;2024-03-23T14:48:38;36.85;29.92;48.36;;
42701;Laerm;28316;49.504;8.526;2024-03-23T14:51:05;36.70;30.89;49.03;;
42701;Laerm;28316;49.504;8.526;2024-03-23T14:53:35;36.38;29.92;39.34;;